Time;durP1;ratioP1;P1;durP2;ratioP2;P2;SDS_P1;SDS_P2;PMS_P1;PMS_P2;Temp;Humidity;BMP_temperature;BMP_pressure;BME280_temperature;BME280_humidity;BME280_pressure;Samples;Min_cycle;Max_cycle;Signal;HPM_P1;HPM_P2
2021/03/31 00:00:53;;;;;;;;;;;13.20;28.60;;;;;;6254559;23;20345;-82
2021/03/31 00:03:20;;;;;;;;;;;13.20;28.60;;;;;;6228187;23;19969;-83
2021/03/31 00:05:46;;;;;;;;;;;13.10;28.70;;;;;;6227789;23;19907;-83
2021/03/31 00:08:11;;;;;;;;;;;13.10;28.90;;;;;;6254620;23;19903;-82
2021/03/31 00:10:44;;;;;;;;;;;13.00;29.20;;;;;;6228129;23;19969;-82
2021/03/31 00:13:10;;;;;;;;;;;13.00;29.50;;;;;;6254287;23;19904;-83
2021/03/31 00:15:36;;;;;;;;;;;12.90;29.80;;;;;;6254752;23;19904;-82
2021/03/31 00:18:03;;;;;;;;;;;12.90;30.10;;;;;;6228158;23;20341;-83
2021/03/31 00:20:28;;;;;;;;;;;12.90;31.00;;;;;;6227813;23;19907;-82
2021/03/31 00:22:54;;;;;;;;;;;12.80;30.70;;;;;;6254720;23;19930;-82
2021/03/31 00:25:19;;;;;;;;;;;12.80;30.80;;;;;;6254872;23;19923;-83
2021/03/31 00:27:45;;;;;;;;;;;12.80;31.00;;;;;;6227881;23;19954;-84
2021/03/31 00:30:11;;;;;;;;;;;12.80;31.00;;;;;;6254944;23;19911;-82
2021/03/31 00:32:37;;;;;;;;;;;12.80;31.10;;;;;;6254844;23;19904;-83
2021/03/31 00:35:03;;;;;;;;;;;12.70;31.00;;;;;;6227970;23;20234;-83
2021/03/31 00:37:29;;;;;;;;;;;12.70;30.90;;;;;;6227202;23;19907;-83
2021/03/31 00:39:54;;;;;;;;;;;12.70;30.90;;;;;;6254654;23;19926;-82
2021/03/31 00:42:20;;;;;;;;;;;12.70;31.60;;;;;;6254766;23;19903;-82
2021/03/31 00:44:45;;;;;;;;;;;12.60;30.80;;;;;;6254714;23;20215;-82
2021/03/31 00:47:10;;;;;;;;;;;12.60;30.80;;;;;;6228258;23;19903;-84
2021/03/31 00:49:36;;;;;;;;;;;12.60;30.80;;;;;;6254419;23;19904;-82
2021/03/31 00:52:02;;;;;;;;;;;12.50;30.80;;;;;;6254325;22;20314;-82
2021/03/31 00:54:27;;;;;;;;;;;12.50;30.80;;;;;;6253652;23;19915;-82
2021/03/31 00:56:53;;;;;;;;;;;12.50;30.80;;;;;;6227080;23;19908;-82
2021/03/31 00:59:21;;;;;;;;;;;12.50;30.80;;;;;;6226145;23;19935;-83
2021/03/31 01:01:47;;;;;;;;;;;12.50;30.80;;;;;;6253854;23;20292;-83
2021/03/31 01:04:12;;;;;;;;;;;12.40;30.80;;;;;;6253806;23;19903;-83
2021/03/31 01:06:38;;;;;;;;;;;12.40;30.80;;;;;;6254018;23;19910;-82
2021/03/31 01:09:04;;;;;;;;;;;12.40;30.80;;;;;;6253345;23;19904;-83
2021/03/31 01:11:42;;;;;;;;;;;12.30;30.80;;;;;;6254359;23;19918;-83
2021/03/31 01:14:11;;;;;;;;;;;12.30;30.80;;;;;;6254079;23;19907;-83
2021/03/31 01:16:40;;;;;;;;;;;12.30;30.90;;;;;;6226600;23;19908;-82
2021/03/31 01:19:27;;;;;;;;;;;12.20;30.90;;;;;;6252810;23;19914;-82
2021/03/31 01:22:02;;;;;;;;;;;12.10;30.90;;;;;;6226101;23;20320;-82
2021/03/31 01:24:46;;;;;;;;;;;12.10;31.00;;;;;;6227561;23;19904;-82
2021/03/31 01:27:13;;;;;;;;;;;12.10;31.00;;;;;;6253536;23;19907;-82
2021/03/31 01:29:54;;;;;;;;;;;12.00;31.00;;;;;;6253570;23;19911;-82
2021/03/31 01:32:29;;;;;;;;;;;12.00;31.10;;;;;;6226596;23;19930;-83
2021/03/31 01:34:56;;;;;;;;;;;11.90;31.00;;;;;;6253992;23;19919;-82
2021/03/31 01:37:21;;;;;;;;;;;11.90;31.10;;;;;;6225654;23;19926;-82
2021/03/31 01:39:48;;;;;;;;;;;11.90;31.10;;;;;;6224886;23;20310;-82
2021/03/31 01:42:14;;;;;;;;;;;11.90;31.10;;;;;;6253880;23;19904;-82
2021/03/31 01:44:41;;;;;;;;;;;11.90;31.20;;;;;;6253937;23;19931;-81
2021/03/31 01:47:10;;;;;;;;;;;11.90;31.20;;;;;;6225981;23;19917;-82
2021/03/31 01:49:35;;;;;;;;;;;11.80;31.20;;;;;;6254343;23;19930;-84
2021/03/31 01:52:02;;;;;;;;;;;11.80;31.30;;;;;;6253441;23;19908;-82
2021/03/31 01:54:29;;;;;;;;;;;11.80;31.30;;;;;;6253779;23;19926;-82
2021/03/31 01:56:54;;;;;;;;;;;11.70;31.30;;;;;;6253728;23;19986;-82
2021/03/31 01:59:20;;;;;;;;;;;11.70;31.30;;;;;;6227382;23;19907;-83
2021/03/31 02:01:49;;;;;;;;;;;11.60;31.30;;;;;;6226513;23;19904;-82
2021/03/31 02:04:15;;;;;;;;;;;11.70;31.50;;;;;;6253220;23;19907;-82
2021/03/31 02:06:41;;;;;;;;;;;11.60;31.40;;;;;;6252570;23;19914;-82
2021/03/31 02:09:07;;;;;;;;;;;11.60;31.40;;;;;;6252762;23;19908;-82
2021/03/31 02:11:33;;;;;;;;;;;11.50;31.40;;;;;;6225976;23;20250;-81
2021/03/31 02:14:00;;;;;;;;;;;11.50;31.40;;;;;;6225430;23;20321;-84
2021/03/31 02:16:26;;;;;;;;;;;11.50;31.50;;;;;;6225373;23;19934;-82
2021/03/31 02:18:53;;;;;;;;;;;11.50;31.50;;;;;;6252870;23;19904;-80
2021/03/31 02:21:18;;;;;;;;;;;11.50;31.60;;;;;;6252384;23;19904;-80
2021/03/31 02:23:44;;;;;;;;;;;11.40;31.60;;;;;;6253108;23;19904;-80
2021/03/31 02:26:10;;;;;;;;;;;11.30;31.60;;;;;;6253421;23;19907;-81
2021/03/31 02:28:35;;;;;;;;;;;11.30;31.60;;;;;;6252236;23;19904;-81
2021/03/31 02:31:03;;;;;;;;;;;11.30;31.70;;;;;;6226181;23;19946;-80
2021/03/31 02:33:29;;;;;;;;;;;11.20;31.70;;;;;;6252898;23;19904;-82
2021/03/31 02:35:54;;;;;;;;;;;11.20;31.70;;;;;;6253128;23;20305;-82
2021/03/31 02:38:21;;;;;;;;;;;11.20;31.80;;;;;;6252197;23;19904;-81
2021/03/31 02:40:47;;;;;;;;;;;11.10;31.70;;;;;;6226327;23;20294;-82
2021/03/31 02:43:14;;;;;;;;;;;11.10;31.80;;;;;;6225449;23;19910;-82
2021/03/31 02:45:40;;;;;;;;;;;11.10;31.90;;;;;;6226246;23;19939;-82
2021/03/31 02:48:06;;;;;;;;;;;11.10;31.90;;;;;;6251966;23;19908;-82
2021/03/31 02:50:33;;;;;;;;;;;11.00;31.80;;;;;;6252172;23;19978;-81
2021/03/31 02:52:59;;;;;;;;;;;11.00;31.90;;;;;;6252716;22;19919;-81
2021/03/31 02:55:26;;;;;;;;;;;10.90;31.90;;;;;;6253953;23;19908;-82
2021/03/31 02:57:52;;;;;;;;;;;10.80;31.90;;;;;;6252145;23;19914;-82
2021/03/31 03:00:18;;;;;;;;;;;10.80;32.00;;;;;;6252180;23;19903;-81
2021/03/31 03:02:46;;;;;;;;;;;10.80;32.10;;;;;;6252276;23;20318;-81
2021/03/31 03:05:13;;;;;;;;;;;10.80;32.10;;;;;;6252765;23;19911;-82
2021/03/31 03:07:39;;;;;;;;;;;10.70;32.10;;;;;;6252724;23;19907;-81
2021/03/31 03:10:06;;;;;;;;;;;10.70;32.10;;;;;;6252485;23;19918;-81
2021/03/31 03:12:32;;;;;;;;;;;10.70;32.10;;;;;;6251637;23;20318;-82
2021/03/31 03:14:57;;;;;;;;;;;10.70;32.20;;;;;;6252374;23;19927;-82
2021/03/31 03:17:23;;;;;;;;;;;10.70;32.20;;;;;;6251915;23;20314;-82
2021/03/31 03:19:49;;;;;;;;;;;10.60;32.20;;;;;;6252894;23;19904;-81
2021/03/31 03:22:15;;;;;;;;;;;10.60;32.30;;;;;;6251669;23;19968;-82
2021/03/31 03:24:44;;;;;;;;;;;10.60;32.30;;;;;;6252621;23;19908;-82
2021/03/31 03:27:13;;;;;;;;;;;10.60;32.30;;;;;;6224269;23;19917;-81
2021/03/31 03:29:41;;;;;;;;;;;10.60;32.40;;;;;;6252962;23;19978;-81
2021/03/31 03:32:07;;;;;;;;;;;10.60;32.40;;;;;;6225212;23;19904;-82
2021/03/31 03:34:32;;;;;;;;;;;10.60;32.50;;;;;;6252433;23;19954;-81
2021/03/31 03:36:58;;;;;;;;;;;10.50;32.40;;;;;;6252163;23;19903;-81
2021/03/31 03:39:23;;;;;;;;;;;10.60;32.50;;;;;;6252434;23;19903;-82
2021/03/31 03:41:49;;;;;;;;;;;10.50;32.50;;;;;;6253119;23;19903;-81
2021/03/31 03:44:16;;;;;;;;;;;10.50;32.60;;;;;;6252273;23;19951;-82
2021/03/31 03:46:43;;;;;;;;;;;10.50;32.60;;;;;;6252324;23;19907;-82
2021/03/31 03:49:08;;;;;;;;;;;10.50;32.60;;;;;;6252229;23;19904;-83
2021/03/31 03:51:36;;;;;;;;;;;10.40;32.50;;;;;;6251822;22;20118;-81
2021/03/31 03:54:08;;;;;;;;;;;10.40;32.60;;;;;;6225752;23;19917;-81
2021/03/31 03:56:33;;;;;;;;;;;10.40;32.60;;;;;;6252845;23;19911;-81
2021/03/31 03:59:14;;;;;;;;;;;10.40;32.70;;;;;;6251735;23;20333;-81
2021/03/31 04:01:40;;;;;;;;;;;10.30;32.70;;;;;;6251495;23;19911;-81
2021/03/31 04:04:05;;;;;;;;;;;10.30;32.80;;;;;;6252077;23;19911;-82
2021/03/31 04:06:31;;;;;;;;;;;10.30;32.80;;;;;;6251568;23;19918;-81
2021/03/31 04:08:56;;;;;;;;;;;10.20;32.80;;;;;;6251724;23;19965;-81
2021/03/31 04:11:22;;;;;;;;;;;10.20;32.90;;;;;;6253264;23;20330;-82
2021/03/31 04:13:47;;;;;;;;;;;10.20;32.90;;;;;;6254004;23;20291;-81
2021/03/31 04:16:13;;;;;;;;;;;10.20;32.90;;;;;;6253852;23;19919;-81
2021/03/31 04:18:39;;;;;;;;;;;10.20;32.90;;;;;;6253554;23;20276;-82
2021/03/31 04:21:06;;;;;;;;;;;10.20;32.90;;;;;;6253456;23;19907;-82
2021/03/31 04:23:32;;;;;;;;;;;10.20;32.90;;;;;;6253246;23;19904;-81
2021/03/31 04:25:58;;;;;;;;;;;10.20;32.90;;;;;;6254150;23;20241;-81
2021/03/31 04:28:24;;;;;;;;;;;10.20;33.00;;;;;;6254731;23;19955;-81
2021/03/31 04:30:50;;;;;;;;;;;10.20;33.10;;;;;;6226808;23;19904;-81
2021/03/31 04:33:16;;;;;;;;;;;10.10;33.20;;;;;;6226985;23;19904;-81
2021/03/31 04:35:42;;;;;;;;;;;10.10;33.20;;;;;;6253680;23;19962;-81
2021/03/31 04:38:08;;;;;;;;;;;10.10;33.30;;;;;;6226247;23;19907;-82
2021/03/31 04:40:42;;;;;;;;;;;10.10;33.40;;;;;;6226633;23;19910;-81
2021/03/31 04:43:08;;;;;;;;;;;10.10;33.40;;;;;;6252823;23;19904;-81
2021/03/31 04:45:33;;;;;;;;;;;10.10;33.50;;;;;;6252854;23;19927;-81
2021/03/31 04:47:59;;;;;;;;;;;10.10;33.50;;;;;;6252098;23;19907;-81
2021/03/31 04:50:24;;;;;;;;;;;10.10;33.60;;;;;;6253443;23;19997;-81
2021/03/31 04:52:52;;;;;;;;;;;10.10;33.70;;;;;;6254605;23;19919;-82
2021/03/31 04:55:18;;;;;;;;;;;10.10;33.80;;;;;;6248340;23;19907;-81
2021/03/31 04:57:43;;;;;;;;;;;10.10;33.90;;;;;;6252425;23;20322;-81
2021/03/31 05:00:09;;;;;;;;;;;10.00;33.80;;;;;;6223867;23;20381;-81
2021/03/31 05:02:34;;;;;;;;;;;10.00;33.80;;;;;;6252500;23;19912;-81
2021/03/31 05:05:00;;;;;;;;;;;10.10;34.00;;;;;;6252200;23;19907;-82
2021/03/31 05:07:25;;;;;;;;;;;10.10;34.00;;;;;;6252386;23;19930;-82
2021/03/31 05:09:53;;;;;;;;;;;10.10;34.00;;;;;;6253041;23;19904;-83
2021/03/31 05:12:19;;;;;;;;;;;10.10;34.00;;;;;;6252642;23;19904;-83
2021/03/31 05:14:44;;;;;;;;;;;10.10;34.00;;;;;;6252790;23;20348;-82
2021/03/31 05:17:10;;;;;;;;;;;10.10;34.00;;;;;;6251790;23;20277;-81
2021/03/31 05:19:35;;;;;;;;;;;10.10;33.90;;;;;;6253207;23;20066;-83
2021/03/31 05:22:01;;;;;;;;;;;10.10;34.00;;;;;;6251510;23;20215;-82
2021/03/31 05:24:26;;;;;;;;;;;10.10;33.90;;;;;;6252565;23;19903;-82
2021/03/31 05:26:52;;;;;;;;;;;10.10;33.90;;;;;;6252066;23;19907;-81
2021/03/31 05:29:18;;;;;;;;;;;10.10;33.90;;;;;;6225079;23;19978;-83
2021/03/31 05:31:44;;;;;;;;;;;10.10;33.90;;;;;;6251372;23;19935;-82
2021/03/31 05:34:09;;;;;;;;;;;10.10;33.90;;;;;;6225902;23;19903;-82
2021/03/31 05:36:35;;;;;;;;;;;10.20;34.00;;;;;;6226300;23;20241;-82
2021/03/31 05:39:00;;;;;;;;;;;10.30;34.00;;;;;;6224431;23;19926;-82
2021/03/31 05:41:26;;;;;;;;;;;10.30;33.90;;;;;;6252470;23;19923;-85
2021/03/31 05:43:51;;;;;;;;;;;10.40;33.90;;;;;;6253652;23;19903;-83
2021/03/31 05:46:17;;;;;;;;;;;10.50;33.80;;;;;;6252316;23;19939;-84
2021/03/31 05:48:43;;;;;;;;;;;10.90;34.00;;;;;;6252820;23;19918;-85
2021/03/31 05:51:08;;;;;;;;;;;12.50;34.60;;;;;;6254485;23;19903;-85
2021/03/31 05:53:34;;;;;;;;;;;15.10;33.20;;;;;;6254204;23;19923;-84
2021/03/31 05:55:59;;;;;;;;;;;18.10;31.60;;;;;;6255699;23;20242;-85
2021/03/31 05:58:25;;;;;;;;;;;20.70;30.10;;;;;;6254726;23;19903;-86
2021/03/31 06:00:50;;;;;;;;;;;23.00;29.40;;;;;;6251902;23;19969;-85
2021/03/31 06:03:21;;;;;;;;;;;25.10;28.90;;;;;;6254126;23;19976;-86
2021/03/31 06:05:54;;;;;;;;;;;27.00;28.30;;;;;;6229629;23;19919;-85
2021/03/31 06:08:19;;;;;;;;;;;28.80;27.70;;;;;;6254401;23;19903;-85
2021/03/31 06:10:49;;;;;;;;;;;30.50;27.20;;;;;;6224938;23;20405;-84
2021/03/31 06:13:15;;;;;;;;;;;32.00;26.70;;;;;;6250560;23;20318;-84
2021/03/31 06:15:43;;;;;;;;;;;33.30;26.30;;;;;;6223415;23;19904;-84
2021/03/31 06:18:16;;;;;;;;;;;34.50;25.90;;;;;;6221881;23;19903;-84
2021/03/31 06:20:54;;;;;;;;;;;35.60;25.70;;;;;;6221673;23;20250;-84
2021/03/31 06:26:25;;;;;;;;;;;37.80;25.70;;;;;;6245706;23;19938;-84
2021/03/31 06:28:59;;;;;;;;;;;38.90;24.80;;;;;;6244994;23;19930;-85
2021/03/31 06:31:32;;;;;;;;;;;39.60;24.50;;;;;;6218551;23;20222;-85
2021/03/31 06:34:18;;;;;;;;;;;40.20;24.30;;;;;;6217668;23;19926;-84
2021/03/31 06:36:58;;;;;;;;;;;;;;;;;;;;;
2021/03/31 06:39:30;;;;;;;;;;;41.40;23.70;;;;;;6244691;23;19990;-85
2021/03/31 06:42:18;;;;;;;;;;;;;;;;;;;;;
2021/03/31 06:48:32;;;;;;;;;;;43.80;23.30;;;;;;6239933;23;19904;-84
2021/03/31 06:51:12;;;;;;;;;;;44.60;23.20;;;;;;6239674;23;19907;-85
2021/03/31 06:56:27;;;;;;;;;;;45.70;22.90;;;;;;6234094;23;19908;-85
2021/03/31 06:58:57;;;;;;;;;;;46.00;22.80;;;;;;6244940;23;19903;-86
2021/03/31 07:01:24;;;;;;;;;;;46.60;22.70;;;;;;6244864;23;19926;-85
2021/03/31 07:04:20;;;;;;;;;;;;;;;;;;;;;
2021/03/31 07:07:10;;;;;;;;;;;47.40;22.50;;;;;;6258892;22;19978;-85
2021/03/31 07:09:36;;;;;;;;;;;47.40;22.10;;;;;;6274661;22;19907;-85
2021/03/31 07:12:17;;;;;;;;;;;47.10;21.70;;;;;;6268014;22;19949;-85
2021/03/31 07:14:47;;;;;;;;;;;47.10;21.70;;;;;;6245612;23;19950;-85
2021/03/31 07:17:20;;;;;;;;;;;47.40;21.70;;;;;;6218153;23;19911;-85
2021/03/31 07:19:50;;;;;;;;;;;47.80;21.60;;;;;;6245460;23;19908;-85
2021/03/31 07:22:18;;;;;;;;;;;47.80;21.30;;;;;;6243657;22;19907;-86
2021/03/31 07:25:13;;;;;;;;;;;47.80;21.20;;;;;;6245343;23;19927;-84
2021/03/31 07:34:12;;;;;;;;;;;48.10;20.50;;;;;;6226735;23;20456;-85
2021/03/31 07:36:39;;;;;;;;;;;48.30;20.40;;;;;;6217296;23;20006;-85
2021/03/31 07:39:08;;;;;;;;;;;48.40;20.30;;;;;;6217482;23;19903;-85
2021/03/31 07:41:41;;;;;;;;;;;48.40;20.10;;;;;;6243384;22;19907;-85
2021/03/31 07:44:10;;;;;;;;;;;48.40;20.10;;;;;;6245271;23;19900;-85
2021/03/31 07:46:43;;;;;;;;;;;48.50;20.20;;;;;;6246675;23;19911;-85
2021/03/31 07:49:08;;;;;;;;;;;48.70;20.10;;;;;;6219196;23;19947;-85
2021/03/31 07:51:36;;;;;;;;;;;48.70;20.10;;;;;;6246156;22;20326;-85
2021/03/31 07:54:03;;;;;;;;;;;48.70;20.10;;;;;;6247010;23;19970;-87
2021/03/31 07:56:31;;;;;;;;;;;48.70;19.60;;;;;;6246664;23;19915;-84
2021/03/31 07:59:06;;;;;;;;;;;48.60;19.70;;;;;;6247550;23;19910;-85
2021/03/31 08:01:40;;;;;;;;;;;48.80;19.70;;;;;;6220803;22;19903;-85
2021/03/31 08:04:23;;;;;;;;;;;48.70;19.60;;;;;;6249782;23;19920;-86
2021/03/31 08:06:58;;;;;;;;;;;48.60;19.60;;;;;;6249952;23;19903;-85
2021/03/31 08:09:32;;;;;;;;;;;48.60;19.60;;;;;;6249866;23;19910;-85
2021/03/31 08:12:24;;;;;;;;;;;48.60;19.60;;;;;;6219572;23;19904;-84
2021/03/31 08:14:52;;;;;;;;;;;48.70;19.80;;;;;;6196255;23;19911;-84
2021/03/31 08:17:21;;;;;;;;;;;49.00;19.80;;;;;;6219777;23;19994;-85
2021/03/31 08:20:00;;;;;;;;;;;;;;;;;;;;;
2021/03/31 08:22:54;;;;;;;;;;;48.90;19.90;;;;;;6242591;22;19978;-84
2021/03/31 08:35:00;;;;;;;;;;;;;;;;;;;;;
2021/03/31 08:38:05;;;;;;;;;;;;;;;;;;;;;
2021/03/31 08:41:09;;;;;;;;;;;;;;;;;;;;;
2021/03/31 08:50:36;;;;;;;;;;;48.10;20.20;;;;;;6235748;23;19938;-84
2021/03/31 09:05:23;;;;;;;;;;;48.90;20.50;;;;;;6225201;23;19911;-85
2021/03/31 09:17:25;;;;;;;;;;;48.60;20.80;;;;;;6224351;23;19908;-84
2021/03/31 09:23:09;;;;;;;;;;;;;;;;;;;;;
2021/03/31 09:26:16;;;;;;;;;;;48.60;21.10;;;;;;6245785;23;20286;-86
2021/03/31 09:41:03;;;;;;;;;;;;;;;;;;;;;
2021/03/31 09:43:32;;;;;;;;;;;48.30;21.70;;;;;;6246175;22;19983;-85
2021/03/31 09:55:05;;;;;;;;;;;48.60;21.70;;;;;;6224944;23;20285;-84
2021/03/31 09:57:51;;;;;;;;;;;48.70;21.70;;;;;;6243809;23;19973;-86
2021/03/31 10:00:27;;;;;;;;;;;48.60;21.70;;;;;;6218467;23;19997;-85
2021/03/31 10:02:57;;;;;;;;;;;48.70;21.80;;;;;;6245306;22;19907;-86
2021/03/31 10:05:37;;;;;;;;;;;48.70;21.90;;;;;;6245350;23;19911;-86
2021/03/31 10:08:15;;;;;;;;;;;;;;;;;;;;;
2021/03/31 10:14:20;;;;;;;;;;;;;;;;;;;;;
2021/03/31 10:16:50;;;;;;;;;;;48.80;22.10;;;;;;6245177;23;19990;-85
2021/03/31 10:19:18;;;;;;;;;;;48.80;22.20;;;;;;6217206;23;19911;-86
2021/03/31 10:22:04;;;;;;;;;;;48.70;22.30;;;;;;6244799;22;19903;-86
2021/03/31 10:24:39;;;;;;;;;;;48.60;22.40;;;;;;6218779;23;20222;-85
2021/03/31 10:27:05;;;;;;;;;;;48.60;22.40;;;;;;6218200;23;19978;-85
2021/03/31 10:29:31;;;;;;;;;;;48.50;22.40;;;;;;6218573;23;20349;-84
2021/03/31 10:35:03;;;;;;;;;;;;;;;;;;;;;
2021/03/31 10:37:53;;;;;;;;;;;48.30;22.40;;;;;;6244442;23;20389;-85
2021/03/31 10:51:13;;;;;;;;;;;49.40;21.80;;;;;;6245156;23;20278;-85
2021/03/31 10:53:54;;;;;;;;;;;;;;;;;;;;;
2021/03/31 10:56:20;;;;;;;;;;;49.90;21.60;;;;;;6246387;23;19990;-85
2021/03/31 10:58:46;;;;;;;;;;;50.00;21.50;;;;;;6244810;23;20266;-85
2021/03/31 11:01:11;;;;;;;;;;;50.10;21.50;;;;;;6216731;23;19903;-85
2021/03/31 11:03:37;;;;;;;;;;;50.00;21.40;;;;;;6243355;22;19907;-85
2021/03/31 11:06:09;;;;;;;;;;;49.40;21.30;;;;;;6245703;23;19908;-85
2021/03/31 11:08:34;;;;;;;;;;;48.90;21.50;;;;;;6245151;23;19903;-84
2021/03/31 11:11:00;;;;;;;;;;;48.50;21.60;;;;;;6247851;23;20346;-84
2021/03/31 11:13:27;;;;;;;;;;;48.40;21.80;;;;;;6245537;22;19903;-84
2021/03/31 11:15:56;;;;;;;;;;;48.40;22.00;;;;;;6218630;23;19899;-84
2021/03/31 11:18:36;;;;;;;;;;;;;;;;;;;;;
2021/03/31 11:26:14;;;;;;;;;;;47.00;22.30;;;;;;6245731;23;20024;-86
2021/03/31 11:28:46;;;;;;;;;;;46.90;22.30;;;;;;6219324;23;19960;-85
2021/03/31 11:31:17;;;;;;;;;;;46.90;22.40;;;;;;6219347;23;19903;-85
2021/03/31 11:33:52;;;;;;;;;;;;;;;;;;;;;
2021/03/31 11:36:36;;;;;;;;;;;46.80;22.40;;;;;;6245124;23;20018;-86
2021/03/31 11:39:30;;;;;;;;;;;46.30;22.30;;;;;;6245905;23;19904;-85
2021/03/31 11:48:27;;;;;;;;;;;45.40;22.40;;;;;;6224873;23;20273;-85
2021/03/31 11:56:56;;;;;;;;;;;45.10;22.30;;;;;;6223466;23;20199;-86
2021/03/31 12:05:43;;;;;;;;;;;44.80;22.30;;;;;;6199006;23;19923;-86
2021/03/31 12:08:21;;;;;;;;;;;;;;;;;;;;;
2021/03/31 12:17:01;;;;;;;;;;;45.20;22.20;;;;;;6202008;23;19908;-87
2021/03/31 12:19:50;;;;;;;;;;;45.20;22.20;;;;;;6214668;23;20284;-86
2021/03/31 12:25:44;;;;;;;;;;;45.00;22.10;;;;;;6209981;23;19931;-85
2021/03/31 12:31:21;;;;;;;;;;;44.50;22.10;;;;;;6211260;23;19948;-86
2021/03/31 12:34:07;;;;;;;;;;;44.30;22.10;;;;;;6189664;23;19950;-84
2021/03/31 12:36:55;;;;;;;;;;;44.30;22.10;;;;;;6215948;23;20323;-86
2021/03/31 12:39:40;;;;;;;;;;;;;;;;;;;;;
2021/03/31 12:42:44;;;;;;;;;;;;;;;;;;;;;
2021/03/31 12:45:13;;;;;;;;;;;44.00;22.20;;;;;;6211666;23;19990;-86
2021/03/31 12:47:38;;;;;;;;;;;43.80;22.20;;;;;;6214604;23;20220;-85
2021/03/31 12:50:05;;;;;;;;;;;43.70;22.20;;;;;;6217284;23;19908;-86
2021/03/31 12:52:42;;;;;;;;;;;43.60;22.20;;;;;;6190331;23;19922;-85
2021/03/31 12:55:11;;;;;;;;;;;43.50;22.30;;;;;;6216370;23;20223;-86
2021/03/31 12:57:38;;;;;;;;;;;43.30;22.40;;;;;;6216392;23;19957;-85
2021/03/31 13:00:07;;;;;;;;;;;43.20;22.50;;;;;;6189836;23;19939;-86
2021/03/31 13:02:40;;;;;;;;;;;42.80;22.10;;;;;;6214648;23;19904;-85
2021/03/31 13:05:06;;;;;;;;;;;41.90;22.10;;;;;;6241404;23;19923;-86
2021/03/31 13:07:32;;;;;;;;;;;41.20;22.30;;;;;;6219101;23;19903;-85
2021/03/31 13:09:58;;;;;;;;;;;40.70;22.20;;;;;;6219931;23;19957;-85
2021/03/31 13:12:45;;;;;;;;;;;40.20;22.40;;;;;;6219455;23;20342;-85
2021/03/31 13:22:57;;;;;;;;;;;38.80;22.70;;;;;;6246488;22;19954;-85
2021/03/31 13:25:35;;;;;;;;;;;38.70;22.80;;;;;;6246690;23;19911;-85
2021/03/31 13:33:20;;;;;;;;;;;38.20;22.80;;;;;;6249607;22;19915;-85
2021/03/31 13:38:30;;;;;;;;;;;38.20;23.00;;;;;;6256360;23;19969;-84
2021/03/31 13:40:56;;;;;;;;;;;38.30;23.00;;;;;;6246189;23;20281;-86
2021/03/31 13:43:24;;;;;;;;;;;38.30;23.00;;;;;;6245896;22;19903;-85
2021/03/31 13:45:52;;;;;;;;;;;38.30;23.10;;;;;;6246536;23;19903;-85
2021/03/31 13:48:30;;;;;;;;;;;38.30;23.10;;;;;;6219329;23;20288;-85
2021/03/31 13:50:56;;;;;;;;;;;38.30;23.10;;;;;;6219493;23;19930;-84
2021/03/31 13:53:22;;;;;;;;;;;38.20;23.60;;;;;;6249547;22;19904;-85
2021/03/31 13:55:49;;;;;;;;;;;37.60;23.00;;;;;;6219424;23;19903;-85
2021/03/31 13:58:14;;;;;;;;;;;37.20;23.20;;;;;;6245943;23;19929;-85
2021/03/31 14:00:49;;;;;;;;;;;37.00;23.30;;;;;;6246172;23;19931;-85
2021/03/31 14:03:15;;;;;;;;;;;37.00;23.40;;;;;;6246154;22;19908;-85
2021/03/31 14:05:40;;;;;;;;;;;36.90;23.40;;;;;;6246364;23;19959;-85
2021/03/31 14:08:06;;;;;;;;;;;36.70;23.50;;;;;;6245758;23;19982;-85
2021/03/31 14:10:32;;;;;;;;;;;36.60;23.60;;;;;;6246868;23;20329;-84
2021/03/31 14:12:58;;;;;;;;;;;36.70;23.60;;;;;;6246633;22;19903;-84
2021/03/31 14:15:26;;;;;;;;;;;36.30;23.50;;;;;;6219759;23;19904;-85
2021/03/31 14:17:51;;;;;;;;;;;35.80;23.60;;;;;;6219796;23;19907;-84
2021/03/31 14:20:18;;;;;;;;;;;35.50;23.80;;;;;;6246831;23;19904;-85
2021/03/31 14:22:44;;;;;;;;;;;35.30;23.90;;;;;;6247376;22;19926;-84
2021/03/31 14:25:11;;;;;;;;;;;35.10;23.90;;;;;;6246534;23;19903;-85
2021/03/31 14:27:37;;;;;;;;;;;35.00;24.00;;;;;;6245807;23;19926;-84
2021/03/31 14:30:07;;;;;;;;;;;35.10;24.00;;;;;;6246622;23;19904;-84
2021/03/31 14:32:33;;;;;;;;;;;35.20;24.00;;;;;;6246245;22;19910;-85
2021/03/31 14:34:59;;;;;;;;;;;35.10;24.00;;;;;;6219483;23;19904;-85
2021/03/31 14:37:26;;;;;;;;;;;35.10;24.10;;;;;;6245514;23;20242;-85
2021/03/31 14:39:52;;;;;;;;;;;34.70;24.00;;;;;;6245903;23;19919;-86
2021/03/31 14:42:17;;;;;;;;;;;34.30;24.70;;;;;;6245851;22;20309;-85
2021/03/31 14:44:43;;;;;;;;;;;33.90;24.30;;;;;;6219117;23;19910;-84
2021/03/31 14:47:08;;;;;;;;;;;33.70;24.50;;;;;;6245745;23;20345;-86
2021/03/31 14:49:34;;;;;;;;;;;33.60;24.50;;;;;;6246667;23;19903;-85
2021/03/31 14:55:25;;;;;;;;;;;33.50;24.70;;;;;;6245526;23;20353;-85
2021/03/31 15:00:13;;;;;;;;;;;33.20;24.80;;;;;;6246482;23;19907;-85
2021/03/31 15:02:39;;;;;;;;;;;32.90;24.80;;;;;;6246488;22;19935;-84
2021/03/31 15:05:05;;;;;;;;;;;32.60;24.90;;;;;;6219525;23;19922;-84
2021/03/31 15:07:31;;;;;;;;;;;32.30;25.10;;;;;;6246503;23;20326;-84
2021/03/31 15:09:56;;;;;;;;;;;32.10;25.10;;;;;;6219742;23;19910;-84
2021/03/31 15:12:22;;;;;;;;;;;31.70;25.20;;;;;;6246746;22;19978;-84
2021/03/31 15:14:47;;;;;;;;;;;31.40;25.30;;;;;;6247022;23;19911;-84
2021/03/31 15:17:13;;;;;;;;;;;31.20;25.40;;;;;;6219995;23;19930;-84
2021/03/31 15:19:42;;;;;;;;;;;30.80;25.60;;;;;;6248313;23;20246;-84
2021/03/31 15:22:40;;;;;;;;;;;30.60;25.70;;;;;;6247986;22;19903;-84
2021/03/31 15:25:06;;;;;;;;;;;30.50;25.80;;;;;;6247857;23;19907;-84
2021/03/31 15:27:31;;;;;;;;;;;30.50;25.80;;;;;;6247771;23;19904;-85
2021/03/31 15:29:57;;;;;;;;;;;30.50;25.80;;;;;;6250281;23;20314;-86
2021/03/31 15:32:22;;;;;;;;;;;30.50;25.80;;;;;;6222666;23;20390;-85
2021/03/31 15:34:51;;;;;;;;;;;30.50;25.70;;;;;;6248663;23;19900;-84
2021/03/31 15:37:16;;;;;;;;;;;30.50;25.80;;;;;;6248995;23;19904;-84
2021/03/31 15:39:42;;;;;;;;;;;30.50;25.80;;;;;;6249276;23;19979;-85
2021/03/31 15:42:08;;;;;;;;;;;30.40;25.80;;;;;;6248921;22;19899;-84
2021/03/31 15:44:33;;;;;;;;;;;30.30;26.40;;;;;;6222686;23;19899;-84
2021/03/31 15:49:31;;;;;;;;;;;30.20;26.00;;;;;;6259413;23;19900;-87
2021/03/31 15:51:57;;;;;;;;;;;30.00;26.00;;;;;;6249765;22;19915;-86
2021/03/31 15:54:22;;;;;;;;;;;30.00;26.00;;;;;;6249243;23;19899;-84
2021/03/31 15:56:48;;;;;;;;;;;30.00;26.00;;;;;;6250993;23;19904;-84
2021/03/31 15:59:13;;;;;;;;;;;30.10;26.10;;;;;;6250968;23;19900;-84
2021/03/31 16:01:39;;;;;;;;;;;30.10;26.10;;;;;;6250963;22;19903;-84
2021/03/31 16:04:19;;;;;;;;;;;29.90;26.00;;;;;;6251088;23;19935;-84
2021/03/31 16:09:30;;;;;;;;;;;29.60;26.20;;;;;;6250407;23;19950;-83
2021/03/31 16:11:56;;;;;;;;;;;29.50;26.20;;;;;;6250538;22;20245;-87
2021/03/31 16:14:21;;;;;;;;;;;29.50;26.30;;;;;;6251126;23;19907;-87
2021/03/31 16:16:47;;;;;;;;;;;29.40;26.30;;;;;;6227198;23;19919;-84
2021/03/31 16:19:12;;;;;;;;;;;29.30;26.30;;;;;;6252884;23;19899;-86
2021/03/31 16:21:38;;;;;;;;;;;29.20;26.30;;;;;;6225508;22;19900;-85
2021/03/31 16:24:03;;;;;;;;;;;29.20;26.30;;;;;;6246916;23;19903;-85
2021/03/31 16:26:29;;;;;;;;;;;29.10;26.30;;;;;;6252036;23;19900;-86
2021/03/31 16:29:08;;;;;;;;;;;29.00;26.30;;;;;;6252620;23;19903;-85
2021/03/31 16:31:36;;;;;;;;;;;28.90;26.30;;;;;;6251090;22;19927;-86
2021/03/31 16:34:06;;;;;;;;;;;28.90;26.30;;;;;;6223980;23;19904;-85
2021/03/31 16:36:38;;;;;;;;;;;28.80;26.30;;;;;;6225253;23;19939;-85
2021/03/31 16:39:05;;;;;;;;;;;28.70;26.30;;;;;;6254642;23;19910;-86
2021/03/31 16:41:33;;;;;;;;;;;28.60;26.30;;;;;;6251285;22;20322;-87
2021/03/31 16:44:01;;;;;;;;;;;28.50;26.40;;;;;;6251471;23;19904;-88
2021/03/31 16:46:26;;;;;;;;;;;28.30;26.40;;;;;;6252510;23;19934;-87
2021/03/31 16:48:54;;;;;;;;;;;28.30;26.50;;;;;;6251837;23;20281;-87
2021/03/31 16:51:20;;;;;;;;;;;28.20;26.50;;;;;;6223644;23;19908;-87
2021/03/31 16:53:50;;;;;;;;;;;28.00;26.50;;;;;;6250179;22;19914;-87
2021/03/31 16:56:15;;;;;;;;;;;28.00;26.60;;;;;;6249891;23;20223;-87
2021/03/31 16:58:41;;;;;;;;;;;27.90;26.60;;;;;;6252623;23;19989;-85
2021/03/31 17:01:07;;;;;;;;;;;27.80;26.60;;;;;;6254918;23;19903;-85
2021/03/31 17:03:32;;;;;;;;;;;27.70;26.70;;;;;;6228853;23;19951;-84
2021/03/31 17:05:58;;;;;;;;;;;27.60;26.70;;;;;;6252931;23;19935;-85
2021/03/31 17:08:23;;;;;;;;;;;27.50;26.70;;;;;;6228722;23;19904;-85
2021/03/31 17:10:50;;;;;;;;;;;27.40;26.70;;;;;;6227407;23;19938;-84
2021/03/31 17:13:16;;;;;;;;;;;27.30;26.70;;;;;;6254237;22;20417;-84
2021/03/31 17:15:41;;;;;;;;;;;27.30;26.80;;;;;;6251427;23;19900;-86
2021/03/31 17:18:07;;;;;;;;;;;27.10;26.80;;;;;;6224616;23;19904;-85
2021/03/31 17:20:34;;;;;;;;;;;27.00;26.80;;;;;;6254200;23;20218;-87
2021/03/31 17:23:02;;;;;;;;;;;26.90;26.90;;;;;;6255768;22;19903;-84
2021/03/31 17:25:32;;;;;;;;;;;26.80;26.90;;;;;;6255375;23;19986;-85
2021/03/31 17:27:58;;;;;;;;;;;26.70;27.00;;;;;;6255442;23;19903;-84